createdAt,value
2016-11-26T00:00:06.199Z,18.2
2016-11-26T00:00:38.521Z,18.17
2016-11-26T00:01:10.817Z,18.17
2016-11-26T00:01:43.221Z,18.21
2016-11-26T00:02:15.681Z,18.23
2016-11-26T00:02:47.989Z,18.17
2016-11-26T00:03:20.309Z,18.2
2016-11-26T00:03:52.612Z,18.19
2016-11-26T00:04:24.987Z,18.23
2016-11-26T00:04:57.299Z,18.2
2016-11-26T00:05:29.616Z,18.14
2016-11-26T00:06:01.919Z,18.19
2016-11-26T00:06:34.238Z,18.21
2016-11-26T00:07:06.549Z,18.2
2016-11-26T00:07:38.861Z,18.23
2016-11-26T00:08:11.168Z,18.2
2016-11-26T00:08:43.468Z,18.16
2016-11-26T00:09:15.791Z,18.19
2016-11-26T00:09:48.114Z,18.21
2016-11-26T00:10:20.456Z,18.23
2016-11-26T00:10:52.756Z,18.2
2016-11-26T00:11:25.092Z,18.23
2016-11-26T00:11:57.405Z,18.23
2016-11-26T00:12:29.718Z,18.23
2016-11-26T00:13:02.022Z,18.17
2016-11-26T00:13:34.343Z,18.19
2016-11-26T00:14:06.645Z,18.23
2016-11-26T00:14:38.962Z,18.21
2016-11-26T00:15:11.283Z,18.2
2016-11-26T00:15:43.602Z,18.19
2016-11-26T00:16:15.927Z,18.21
2016-11-26T00:16:48.256Z,18.17
2016-11-26T00:17:20.590Z,18.19
2016-11-26T00:17:52.901Z,18.17
2016-11-26T00:18:25.229Z,18.24
2016-11-26T00:18:57.539Z,18.23
2016-11-26T00:19:29.850Z,18.21
2016-11-26T00:20:02.141Z,18.19
2016-11-26T00:20:34.464Z,18.17
2016-11-26T00:21:06.771Z,18.24
2016-11-26T00:21:39.102Z,18.21
2016-11-26T00:22:12.029Z,18.13
2016-11-26T00:22:44.365Z,18.24
2016-11-26T00:23:16.685Z,18.19
2016-11-26T00:23:49.006Z,18.26
2016-11-26T00:24:21.334Z,18.23
2016-11-26T00:24:53.717Z,18.2
2016-11-26T00:25:26.022Z,18.23
2016-11-26T00:25:58.339Z,18.19
2016-11-26T00:26:30.642Z,18.17
2016-11-26T00:27:02.949Z,18.11
2016-11-26T00:27:35.311Z,18.2
2016-11-26T00:28:07.643Z,18.19
2016-11-26T00:28:39.969Z,18.23
2016-11-26T00:29:12.285Z,18.13
2016-11-26T00:29:44.600Z,18.14
2016-11-26T00:30:16.912Z,18.17
2016-11-26T00:30:49.231Z,18.1
2016-11-26T00:31:21.552Z,18.23
2016-11-26T00:31:53.873Z,18.14
2016-11-26T00:32:26.199Z,18.21
2016-11-26T00:32:58.519Z,18.05
2016-11-26T00:33:30.833Z,18.23
2016-11-26T00:34:03.171Z,18.17
2016-11-26T00:34:35.493Z,18.16
2016-11-26T00:35:07.826Z,18.2
2016-11-26T00:35:40.132Z,18.2
2016-11-26T00:36:12.481Z,18.1
2016-11-26T00:36:44.801Z,18.2
2016-11-26T00:37:17.115Z,18.2
2016-11-26T00:37:49.428Z,18.21
2016-11-26T00:38:21.745Z,18.19
2016-11-26T00:38:54.067Z,18.2
2016-11-26T00:39:26.381Z,18.17
2016-11-26T00:39:58.697Z,18.24
2016-11-26T00:40:31.044Z,18.17
2016-11-26T00:41:03.351Z,18.19
2016-11-26T00:41:35.686Z,18.1
2016-11-26T00:42:08.025Z,18.21
2016-11-26T00:42:40.363Z,18.16
2016-11-26T00:43:12.668Z,18.21
2016-11-26T00:43:44.968Z,18.11
2016-11-26T00:44:17.273Z,18.17
2016-11-26T00:44:49.587Z,18.13
2016-11-26T00:45:21.921Z,18.11
2016-11-26T00:45:54.258Z,18.13
2016-11-26T00:46:26.570Z,18.19
2016-11-26T00:46:58.897Z,18.11
2016-11-26T00:47:31.212Z,18.02
2016-11-26T00:48:03.544Z,18.16
2016-11-26T00:48:35.851Z,18.17
2016-11-26T00:49:08.180Z,18.08
2016-11-26T00:49:40.507Z,18.1
2016-11-26T00:50:12.832Z,18.21
2016-11-26T00:50:45.133Z,18.16
2016-11-26T00:51:17.461Z,18.11
2016-11-26T00:51:49.772Z,18.14
2016-11-26T00:52:22.106Z,18.17
2016-11-26T00:52:54.414Z,18.14
2016-11-26T00:53:26.740Z,18.16
2016-11-26T00:53:59.087Z,18.08
2016-11-26T00:54:31.407Z,18.03
2016-11-26T00:55:03.737Z,18.01
2016-11-26T00:55:36.041Z,18.03
2016-11-26T00:56:08.349Z,18.06
2016-11-26T00:56:40.653Z,18.14
2016-11-26T00:57:12.992Z,18.23
2016-11-26T00:57:45.307Z,18.05
2016-11-26T00:58:17.623Z,18.08
2016-11-26T00:58:49.954Z,18.08
2016-11-26T00:59:22.266Z,18.11
2016-11-26T00:59:54.619Z,18.08
2016-11-26T01:00:26.944Z,18.17
2016-11-26T01:00:59.267Z,18.2
2016-11-26T01:01:31.595Z,18.14
2016-11-26T01:02:04.322Z,18.14
2016-11-26T01:02:36.722Z,18.08
2016-11-26T01:03:09.060Z,18.17
2016-11-26T01:03:41.381Z,18.19
2016-11-26T01:04:13.702Z,18.1
2016-11-26T01:04:46.006Z,18.05
2016-11-26T01:05:18.319Z,18.06
2016-11-26T01:05:50.680Z,18.08
2016-11-26T01:06:24.578Z,18.14
2016-11-26T01:06:57.755Z,18.1
2016-11-26T01:07:31.089Z,18.16
2016-11-26T01:08:04.460Z,18.21
2016-11-26T01:08:37.537Z,18.1
2016-11-26T01:09:09.847Z,18.14
2016-11-26T01:09:42.153Z,18.19
2016-11-26T01:10:14.480Z,18.06
2016-11-26T01:10:46.827Z,18.1
2016-11-26T01:11:19.128Z,18.02
2016-11-26T01:11:51.443Z,18.06
2016-11-26T01:12:23.776Z,18.08
2016-11-26T01:12:56.098Z,18.13
2016-11-26T01:13:28.417Z,18.11
2016-11-26T01:14:00.714Z,18.08
2016-11-26T01:14:33.039Z,18.2
2016-11-26T01:15:05.368Z,18.14
2016-11-26T01:15:37.682Z,18.14
2016-11-26T01:16:09.992Z,18.1
2016-11-26T01:16:42.275Z,18.14
2016-11-26T01:17:14.600Z,18.2
2016-11-26T01:17:46.920Z,18.03
2016-11-26T01:18:19.231Z,18.14
2016-11-26T01:18:51.539Z,18.14
2016-11-26T01:19:23.860Z,18.03
2016-11-26T01:19:56.169Z,18.05
2016-11-26T01:20:28.493Z,18.06
2016-11-26T01:21:00.820Z,18.13
2016-11-26T01:21:33.130Z,18.03
2016-11-26T01:22:05.460Z,18.13
2016-11-26T01:22:37.782Z,18.05
2016-11-26T01:23:10.133Z,18.02
2016-11-26T01:23:42.451Z,18.13
2016-11-26T01:24:14.778Z,18.08
2016-11-26T01:24:47.081Z,18.13
2016-11-26T01:25:19.397Z,18.1
2016-11-26T01:25:51.717Z,18.03
2016-11-26T01:26:24.043Z,18.06
2016-11-26T01:26:56.355Z,18.03
2016-11-26T01:27:28.709Z,18.06
2016-11-26T01:28:01.018Z,18.17
2016-11-26T01:28:33.321Z,18.08
2016-11-26T01:29:05.641Z,18.05
2016-11-26T01:29:37.938Z,18.21
2016-11-26T01:30:10.242Z,18.1
2016-11-26T01:30:42.552Z,18.13
2016-11-26T01:31:14.853Z,18.06
2016-11-26T01:31:47.156Z,18.13
2016-11-26T01:32:19.490Z,18.19
2016-11-26T01:32:52.582Z,18.03
2016-11-26T01:33:24.924Z,18.08
2016-11-26T01:33:57.241Z,18.14
2016-11-26T01:34:29.573Z,18.06
2016-11-26T01:35:01.935Z,18.06
2016-11-26T01:35:34.250Z,18.1
2016-11-26T01:36:06.571Z,18.08
2016-11-26T01:36:38.874Z,18.23
2016-11-26T01:37:11.181Z,18.11
2016-11-26T01:37:43.479Z,18.08
2016-11-26T01:38:15.778Z,18.08
2016-11-26T01:38:48.118Z,18.03
2016-11-26T01:39:20.432Z,18.16
2016-11-26T01:39:52.763Z,18.17
2016-11-26T01:40:25.076Z,18.19
2016-11-26T01:40:57.413Z,18.16
2016-11-26T01:41:29.750Z,18.08
2016-11-26T01:42:02.073Z,18.1
2016-11-26T01:42:34.401Z,18.24
2016-11-26T01:43:06.726Z,18.14
2016-11-26T01:43:39.049Z,18.11
2016-11-26T01:44:11.369Z,18.11
2016-11-26T01:44:43.684Z,18.05
2016-11-26T01:45:16.002Z,18.11
2016-11-26T01:45:48.318Z,18.19
2016-11-26T01:46:20.643Z,18.2
2016-11-26T01:46:52.963Z,18.06
2016-11-26T01:47:25.282Z,18.02
2016-11-26T01:47:57.579Z,18.02
2016-11-26T01:48:29.904Z,18.08
2016-11-26T01:49:02.212Z,18.2
2016-11-26T01:49:34.520Z,17.99
2016-11-26T01:50:06.857Z,18.1
2016-11-26T01:50:39.181Z,18.11
2016-11-26T01:51:11.508Z,18.16
2016-11-26T01:51:43.817Z,18.17
2016-11-26T01:52:16.157Z,18.05
2016-11-26T01:52:48.473Z,18.05
2016-11-26T01:53:20.784Z,18.11
2016-11-26T01:53:53.099Z,18.21
2016-11-26T01:54:25.434Z,18.19
2016-11-26T01:54:57.752Z,18.17
2016-11-26T01:55:30.075Z,18.05
2016-11-26T01:56:02.389Z,18.13
2016-11-26T01:56:34.714Z,18.16
2016-11-26T01:57:07.027Z,18.06
2016-11-26T01:57:39.341Z,18.03
2016-11-26T01:58:11.645Z,18.05
2016-11-26T01:58:43.944Z,18.17
2016-11-26T01:59:16.280Z,18.17
2016-11-26T01:59:48.607Z,18.11
2016-11-26T02:00:20.916Z,18.14
2016-11-26T02:00:53.273Z,18.17
2016-11-26T02:01:25.583Z,18.05
2016-11-26T02:01:57.930Z,18.01
2016-11-26T02:02:30.258Z,18.14
2016-11-26T02:03:02.588Z,18.11
2016-11-26T02:03:34.908Z,18.17
2016-11-26T02:04:07.220Z,18.11
2016-11-26T02:04:39.548Z,18.14
2016-11-26T02:05:11.849Z,18.16
2016-11-26T02:05:44.161Z,18.05
2016-11-26T02:06:16.462Z,18.1
2016-11-26T02:06:48.763Z,18.26
2016-11-26T02:07:21.077Z,18.05
2016-11-26T02:07:53.374Z,18.14
2016-11-26T02:08:25.695Z,18.03
2016-11-26T02:08:58.010Z,18.17
2016-11-26T02:09:30.317Z,18.11
2016-11-26T02:10:02.631Z,18.13
2016-11-26T02:10:34.950Z,18.14
2016-11-26T02:11:07.268Z,18.06
2016-11-26T02:11:39.584Z,18.11
2016-11-26T02:12:11.890Z,18.08
2016-11-26T02:12:44.216Z,18.2
2016-11-26T02:13:16.524Z,18.02
2016-11-26T02:13:48.837Z,18.03
2016-11-26T02:14:21.188Z,18.11
2016-11-26T02:14:53.505Z,18.05
2016-11-26T02:15:25.822Z,18.13
2016-11-26T02:15:58.116Z,18.1
2016-11-26T02:16:30.440Z,18.02
2016-11-26T02:17:02.764Z,18.14
2016-11-26T02:17:35.103Z,18.14
2016-11-26T02:18:07.411Z,18.14
2016-11-26T02:18:39.730Z,18.03
2016-11-26T02:19:12.045Z,18.14
2016-11-26T02:19:44.368Z,18.05
2016-11-26T02:20:16.684Z,18.08
2016-11-26T02:20:49.006Z,18.01
2016-11-26T02:21:21.320Z,18.05
2016-11-26T02:21:53.641Z,18.06
2016-11-26T02:22:26.004Z,18.17
2016-11-26T02:22:58.337Z,18.02
2016-11-26T02:23:30.658Z,18.11
2016-11-26T02:24:02.982Z,18.06
2016-11-26T02:24:35.301Z,18.08
2016-11-26T02:25:07.626Z,18.06
2016-11-26T02:25:39.935Z,18.08
2016-11-26T02:26:12.241Z,18.08
2016-11-26T02:26:44.562Z,18.01
2016-11-26T02:27:16.870Z,18.17
2016-11-26T02:27:49.190Z,18.1
2016-11-26T02:28:21.503Z,18.1
2016-11-26T02:28:53.829Z,18.14
2016-11-26T02:29:26.141Z,18.16
2016-11-26T02:29:58.455Z,18.08
2016-11-26T02:30:30.776Z,18.21
2016-11-26T02:31:03.118Z,18.14
2016-11-26T02:31:35.429Z,18.02
2016-11-26T02:32:07.748Z,18.1
2016-11-26T02:32:40.101Z,18.1
2016-11-26T02:33:12.426Z,18.14
2016-11-26T02:33:44.752Z,18.16
2016-11-26T02:34:17.095Z,18.1
2016-11-26T02:34:49.423Z,18.16
2016-11-26T02:35:21.739Z,18.14
2016-11-26T02:35:54.055Z,18.14
2016-11-26T02:36:26.409Z,18.16
2016-11-26T02:36:58.714Z,18.06
2016-11-26T02:37:31.032Z,18.16
2016-11-26T02:38:03.349Z,18.19
2016-11-26T02:38:35.656Z,18.11
2016-11-26T02:39:08.002Z,18.1
2016-11-26T02:39:40.319Z,18.13
2016-11-26T02:40:12.631Z,18.05
2016-11-26T02:40:44.943Z,18.17
2016-11-26T02:41:17.261Z,18.05
2016-11-26T02:41:49.577Z,18.19
2016-11-26T02:42:21.916Z,18.1
2016-11-26T02:42:54.280Z,18.17
2016-11-26T02:43:26.596Z,18.17
2016-11-26T02:43:58.941Z,18.05
2016-11-26T02:44:31.246Z,18.03
2016-11-26T02:45:03.580Z,18.11
2016-11-26T02:45:35.901Z,18.02
2016-11-26T02:46:08.248Z,18.06
2016-11-26T02:46:40.562Z,18.13
2016-11-26T02:47:12.889Z,18.17
2016-11-26T02:47:45.197Z,18.03
2016-11-26T02:48:17.524Z,18.11
2016-11-26T02:48:49.861Z,18.05
2016-11-26T02:49:22.172Z,18.08
2016-11-26T02:49:54.494Z,18.14
2016-11-26T02:50:26.796Z,18.1
2016-11-26T02:50:59.136Z,18.13
2016-11-26T02:51:31.453Z,18.06
2016-11-26T02:52:03.758Z,18.16
2016-11-26T02:52:36.090Z,18.14
2016-11-26T02:53:08.389Z,18.14
2016-11-26T02:53:40.700Z,18.2
2016-11-26T02:54:13.018Z,18.1
2016-11-26T02:54:45.337Z,18.06
2016-11-26T02:55:17.660Z,18.11
2016-11-26T02:55:49.987Z,18.11
2016-11-26T02:56:22.312Z,18.05
2016-11-26T02:56:54.634Z,18.11
2016-11-26T02:57:26.959Z,18.08
2016-11-26T02:57:59.316Z,18.14
2016-11-26T02:58:31.635Z,18.08
2016-11-26T02:59:03.993Z,18.05
2016-11-26T02:59:36.358Z,18.1
2016-11-26T03:00:08.668Z,18.16
2016-11-26T03:00:40.982Z,18.06
2016-11-26T03:01:13.299Z,18.02
2016-11-26T03:01:45.662Z,18.02
2016-11-26T03:02:17.990Z,18.13
2016-11-26T03:02:50.315Z,18.13
2016-11-26T03:03:22.625Z,18.08
2016-11-26T03:03:54.961Z,18.06
2016-11-26T03:04:27.273Z,18.06
2016-11-26T03:04:59.586Z,18.08
2016-11-26T03:05:31.904Z,18.05
2016-11-26T03:06:04.229Z,18.21
2016-11-26T03:06:36.529Z,18.16
2016-11-26T03:07:08.858Z,18.02
2016-11-26T03:07:41.159Z,18.19
2016-11-26T03:08:13.467Z,18.1
2016-11-26T03:08:45.782Z,18.1
2016-11-26T03:09:18.097Z,18.08
2016-11-26T03:09:50.403Z,18.11
2016-11-26T03:10:22.717Z,18.06
2016-11-26T03:10:55.027Z,18.1
2016-11-26T03:11:27.354Z,18.14
2016-11-26T03:11:59.655Z,18.14
2016-11-26T03:12:31.979Z,18.17
2016-11-26T03:13:04.298Z,18.11
2016-11-26T03:13:36.635Z,18.11
2016-11-26T03:14:08.958Z,18.13
2016-11-26T03:14:41.280Z,18.11
2016-11-26T03:15:13.639Z,18.13
2016-11-26T03:15:45.961Z,18.14
2016-11-26T03:16:18.279Z,18.1
2016-11-26T03:16:50.643Z,18.1
2016-11-26T03:17:22.948Z,18.05
2016-11-26T03:17:55.264Z,18.17
2016-11-26T03:18:27.584Z,18.17
2016-11-26T03:18:59.909Z,18.14
2016-11-26T03:19:32.267Z,18.08
2016-11-26T03:20:04.617Z,18.02
2016-11-26T03:20:36.944Z,18.06
2016-11-26T03:21:09.285Z,18.05
2016-11-26T03:21:41.613Z,18.06
2016-11-26T03:22:13.927Z,18.06
2016-11-26T03:22:46.241Z,18.06
2016-11-26T03:23:18.552Z,18.14
2016-11-26T03:23:50.876Z,18.1
2016-11-26T03:24:23.185Z,18.14
2016-11-26T03:24:55.503Z,18.05
2016-11-26T03:25:27.825Z,18.06
2016-11-26T03:26:00.150Z,18.1
2016-11-26T03:26:32.469Z,18.05
2016-11-26T03:27:04.819Z,18.08
2016-11-26T03:27:37.129Z,18.02
2016-11-26T03:28:09.444Z,18.01
2016-11-26T03:28:41.769Z,18.03
2016-11-26T03:29:14.079Z,18.08
2016-11-26T03:29:46.448Z,18.05
2016-11-26T03:30:18.769Z,18.08
2016-11-26T03:30:51.088Z,18.1
2016-11-26T03:31:23.398Z,18.06
2016-11-26T03:31:55.744Z,18.03
2016-11-26T03:32:28.078Z,18.05
2016-11-26T03:33:00.429Z,18.11
2016-11-26T03:33:32.778Z,18.05
2016-11-26T03:34:05.095Z,18.08
2016-11-26T03:34:37.404Z,18.05
2016-11-26T03:35:09.739Z,18.02
2016-11-26T03:35:42.046Z,18.01
2016-11-26T03:36:14.374Z,18.14
2016-11-26T03:36:46.693Z,18.05
2016-11-26T03:37:19.009Z,18.1
2016-11-26T03:37:51.334Z,18.02
2016-11-26T03:38:23.753Z,18.03
2016-11-26T03:38:56.066Z,18.03
2016-11-26T03:39:28.387Z,18.05
2016-11-26T03:40:00.712Z,18.03
2016-11-26T03:40:33.017Z,18.03
2016-11-26T03:41:05.347Z,18.02
2016-11-26T03:41:37.653Z,18.03
2016-11-26T03:42:09.955Z,18.14
2016-11-26T03:42:42.274Z,18.13
2016-11-26T03:43:14.591Z,18.1
2016-11-26T03:43:46.901Z,18.16
2016-11-26T03:44:19.187Z,18.06
2016-11-26T03:44:51.491Z,18.03
2016-11-26T03:45:23.804Z,18.02
2016-11-26T03:45:56.122Z,18.13
2016-11-26T03:46:28.426Z,18.03
2016-11-26T03:47:00.776Z,18.03
2016-11-26T03:47:33.088Z,18.1
2016-11-26T03:48:05.392Z,18.1
2016-11-26T03:48:37.725Z,18.06
2016-11-26T03:49:10.032Z,18.02
2016-11-26T03:49:42.372Z,18.11
2016-11-26T03:50:14.693Z,18.01
2016-11-26T03:50:46.996Z,18.06
2016-11-26T03:51:19.324Z,18.11
2016-11-26T03:51:51.632Z,18.02
2016-11-26T03:52:23.943Z,18.08
2016-11-26T03:52:56.276Z,18.13
2016-11-26T03:53:28.600Z,18.08
2016-11-26T03:54:00.925Z,18.1
2016-11-26T03:54:33.246Z,18.03
2016-11-26T03:55:05.557Z,18.05
2016-11-26T03:55:37.887Z,18.03
2016-11-26T03:56:10.197Z,18.03
2016-11-26T03:56:42.504Z,18.08
2016-11-26T03:57:14.841Z,18.08
2016-11-26T03:57:47.162Z,18.06
2016-11-26T03:58:19.496Z,18.05
2016-11-26T03:58:51.804Z,18.08
2016-11-26T03:59:24.154Z,18.02
2016-11-26T03:59:56.472Z,18.1
2016-11-26T04:00:28.780Z,18.01
2016-11-26T04:01:01.100Z,18.06
2016-11-26T04:01:33.413Z,18.11
2016-11-26T04:02:05.716Z,18.03
2016-11-26T04:02:38.039Z,18.05
2016-11-26T04:03:10.340Z,17.99
2016-11-26T04:03:42.651Z,18.06
2016-11-26T04:04:14.983Z,18.06
2016-11-26T04:04:47.292Z,18.05
2016-11-26T04:05:19.603Z,18.03
2016-11-26T04:05:51.919Z,18.01
2016-11-26T04:06:24.266Z,18.05
2016-11-26T04:06:56.571Z,18.08
2016-11-26T04:07:28.891Z,18.08
2016-11-26T04:08:01.234Z,18.02
2016-11-26T04:08:33.542Z,18.13
2016-11-26T04:09:05.864Z,18.02
2016-11-26T04:09:38.188Z,18.02
2016-11-26T04:10:10.527Z,18.1
2016-11-26T04:10:42.840Z,18.11
2016-11-26T04:11:15.166Z,18.11
2016-11-26T04:11:47.472Z,18.03
2016-11-26T04:12:19.808Z,18.11
2016-11-26T04:12:52.124Z,17.99
2016-11-26T04:13:24.431Z,17.98
2016-11-26T04:13:56.743Z,18.06
2016-11-26T04:14:29.045Z,18.06
2016-11-26T04:15:01.353Z,18.01
2016-11-26T04:15:33.666Z,17.98
2016-11-26T04:16:05.985Z,18.05
2016-11-26T04:16:38.289Z,18.13
2016-11-26T04:17:10.601Z,18.02
2016-11-26T04:17:42.904Z,18.11
2016-11-26T04:18:15.206Z,18.05
2016-11-26T04:18:47.519Z,18.08
2016-11-26T04:19:19.816Z,18.05
2016-11-26T04:19:52.153Z,18.01
2016-11-26T04:20:24.475Z,18.01
2016-11-26T04:20:56.806Z,18.08
2016-11-26T04:21:29.133Z,18.1
2016-11-26T04:22:01.435Z,18.11
2016-11-26T04:22:33.755Z,18.02
2016-11-26T04:23:06.059Z,18.08
2016-11-26T04:23:38.396Z,18.05
2016-11-26T04:24:10.712Z,18.01
2016-11-26T04:24:43.029Z,18.1
2016-11-26T04:25:15.352Z,18.02
2016-11-26T04:25:47.664Z,18.05
2016-11-26T04:26:19.990Z,18.05
2016-11-26T04:26:52.318Z,17.98
2016-11-26T04:27:24.638Z,18.01
2016-11-26T04:27:56.962Z,18.02
2016-11-26T04:28:29.270Z,17.99
2016-11-26T04:29:01.575Z,17.99
2016-11-26T04:29:33.877Z,18.02
2016-11-26T04:30:06.192Z,18.03
2016-11-26T04:30:38.485Z,18.13
2016-11-26T04:31:10.808Z,17.98
2016-11-26T04:31:43.107Z,18.01
2016-11-26T04:32:15.422Z,18.03
2016-11-26T04:32:47.734Z,18.01
2016-11-26T04:33:20.040Z,17.99
2016-11-26T04:33:52.364Z,17.99
2016-11-26T04:34:24.724Z,18.05
2016-11-26T04:34:57.039Z,18.01
2016-11-26T04:35:29.388Z,18.01
2016-11-26T04:36:01.701Z,17.98
2016-11-26T04:36:34.054Z,18.02
2016-11-26T04:37:06.387Z,17.99
2016-11-26T04:37:38.668Z,18.02
2016-11-26T04:38:10.989Z,18.02
2016-11-26T04:38:43.303Z,17.96
2016-11-26T04:39:15.620Z,18.02
2016-11-26T04:39:47.940Z,18.03
2016-11-26T04:40:20.247Z,17.99
2016-11-26T04:40:52.570Z,18.06
2016-11-26T04:41:24.923Z,18.05
2016-11-26T04:41:57.248Z,18.01
2016-11-26T04:42:29.562Z,17.95
2016-11-26T04:43:01.860Z,17.95
2016-11-26T04:43:34.195Z,18.01
2016-11-26T04:44:06.525Z,18.05
2016-11-26T04:44:38.848Z,17.99
2016-11-26T04:45:11.155Z,18.02
2016-11-26T04:45:43.464Z,18.05
2016-11-26T04:46:15.820Z,17.98
2016-11-26T04:46:48.126Z,18.02
2016-11-26T04:47:20.448Z,18.02
2016-11-26T04:47:52.779Z,17.95
2016-11-26T04:48:25.103Z,17.95
2016-11-26T04:48:57.402Z,18.02
2016-11-26T04:49:29.722Z,18.01
2016-11-26T04:50:02.030Z,18.02
2016-11-26T04:50:34.346Z,17.95
2016-11-26T04:51:06.656Z,17.98
2016-11-26T04:51:38.989Z,18.01
2016-11-26T04:52:11.311Z,17.98
2016-11-26T04:52:43.607Z,18.03
2016-11-26T04:53:15.924Z,18.08
2016-11-26T04:53:48.228Z,17.95
2016-11-26T04:54:20.555Z,18.01
2016-11-26T04:54:52.865Z,17.96
2016-11-26T04:55:25.191Z,17.98
2016-11-26T04:55:57.507Z,18.01
2016-11-26T04:56:29.832Z,18.01
2016-11-26T04:57:02.148Z,17.98
2016-11-26T04:57:34.458Z,18.02
2016-11-26T04:58:06.778Z,17.98
2016-11-26T04:58:39.104Z,17.95
2016-11-26T04:59:11.401Z,17.95
2016-11-26T04:59:43.715Z,17.96
2016-11-26T05:00:16.036Z,17.98
2016-11-26T05:00:48.355Z,17.99
2016-11-26T05:01:20.662Z,17.99
2016-11-26T05:01:52.986Z,18.03
2016-11-26T05:02:25.302Z,17.98
2016-11-26T05:02:57.605Z,17.99
2016-11-26T05:03:29.933Z,18.01
2016-11-26T05:04:02.246Z,18.01
2016-11-26T05:04:34.579Z,17.96
2016-11-26T05:05:06.911Z,17.96
2016-11-26T05:05:39.228Z,17.98
2016-11-26T05:06:11.554Z,18.05
2016-11-26T05:06:43.910Z,17.98
2016-11-26T05:07:16.287Z,17.99
2016-11-26T05:07:48.617Z,17.98
2016-11-26T05:08:20.934Z,17.99
2016-11-26T05:08:53.258Z,18.01
2016-11-26T05:09:25.570Z,18.01
2016-11-26T05:09:57.895Z,17.98
2016-11-26T05:10:30.203Z,18.06
2016-11-26T05:11:02.504Z,18.01
2016-11-26T05:11:34.816Z,17.94
2016-11-26T05:12:07.126Z,17.96
2016-11-26T05:12:39.448Z,17.94
2016-11-26T05:13:11.769Z,18.01
2016-11-26T05:13:44.091Z,17.96
2016-11-26T05:14:16.412Z,17.98
2016-11-26T05:14:48.744Z,17.94
2016-11-26T05:15:21.083Z,17.88
2016-11-26T05:15:53.413Z,18.03
2016-11-26T05:16:25.769Z,17.9
2016-11-26T05:16:58.074Z,17.96
2016-11-26T05:17:30.467Z,18.02
2016-11-26T05:18:02.771Z,17.9
2016-11-26T05:18:35.107Z,17.9
2016-11-26T05:19:07.436Z,17.94
2016-11-26T05:19:39.744Z,18.01
2016-11-26T05:20:12.086Z,17.96
2016-11-26T05:20:44.399Z,17.98
2016-11-26T05:21:16.742Z,17.96
2016-11-26T05:21:49.062Z,17.94
2016-11-26T05:22:21.410Z,17.99
2016-11-26T05:22:53.722Z,17.94
2016-11-26T05:23:26.052Z,18.03
2016-11-26T05:23:58.361Z,17.95
2016-11-26T05:24:30.658Z,18.01
2016-11-26T05:25:03.004Z,17.96
2016-11-26T05:25:35.331Z,18.01
2016-11-26T05:26:07.641Z,17.87
2016-11-26T05:26:39.956Z,18.02
2016-11-26T05:27:12.279Z,17.99
2016-11-26T05:27:44.602Z,17.96
2016-11-26T05:28:16.923Z,17.98
2016-11-26T05:28:49.230Z,17.95
2016-11-26T05:29:21.534Z,17.9
2016-11-26T05:29:53.850Z,17.92
2016-11-26T05:30:26.170Z,17.95
2016-11-26T05:30:58.493Z,17.96
2016-11-26T05:31:30.831Z,17.95
2016-11-26T05:32:03.129Z,17.95
2016-11-26T05:32:35.440Z,17.98
2016-11-26T05:33:07.746Z,17.98
2016-11-26T05:33:40.043Z,17.99
2016-11-26T05:34:12.350Z,17.96
2016-11-26T05:34:44.682Z,17.95
2016-11-26T05:35:16.996Z,17.98
2016-11-26T05:35:49.322Z,17.95
2016-11-26T05:36:21.664Z,18.02
2016-11-26T05:36:53.966Z,17.99
2016-11-26T05:37:26.286Z,17.95
2016-11-26T05:37:58.606Z,17.96
2016-11-26T05:38:30.940Z,17.96
2016-11-26T05:39:03.294Z,17.88
2016-11-26T05:39:35.608Z,17.87
2016-11-26T05:40:07.922Z,17.98
2016-11-26T05:40:40.223Z,17.95
2016-11-26T05:41:12.550Z,17.98
2016-11-26T05:41:44.868Z,17.98
2016-11-26T05:42:17.168Z,17.96
2016-11-26T05:42:49.475Z,17.96
2016-11-26T05:43:21.796Z,18.01
2016-11-26T05:43:54.133Z,17.94
2016-11-26T05:44:26.460Z,17.96
2016-11-26T05:44:58.777Z,17.92
2016-11-26T05:45:31.105Z,17.96
2016-11-26T05:46:03.444Z,17.92
2016-11-26T05:46:35.777Z,17.96
2016-11-26T05:47:08.083Z,17.95
2016-11-26T05:47:40.415Z,17.96
2016-11-26T05:48:12.742Z,17.96
2016-11-26T05:48:45.071Z,17.88
2016-11-26T05:49:17.405Z,17.95
2016-11-26T05:49:49.727Z,17.96
2016-11-26T05:50:22.062Z,17.99
2016-11-26T05:50:54.398Z,17.87
2016-11-26T05:51:26.740Z,17.96
2016-11-26T05:51:59.056Z,17.9
2016-11-26T05:52:31.387Z,17.96
2016-11-26T05:53:03.695Z,17.96
2016-11-26T05:53:36.021Z,18.01
2016-11-26T05:54:08.346Z,17.98
2016-11-26T05:54:40.693Z,17.94
2016-11-26T05:55:13.011Z,17.96
2016-11-26T05:55:45.310Z,17.98
2016-11-26T05:56:17.625Z,17.98
2016-11-26T05:56:49.941Z,17.9
2016-11-26T05:57:22.271Z,17.94
2016-11-26T05:57:54.587Z,17.95
2016-11-26T05:58:26.921Z,17.98
2016-11-26T05:58:59.258Z,17.9
2016-11-26T05:59:31.566Z,17.99
2016-11-26T06:00:03.889Z,17.88
2016-11-26T06:00:36.183Z,17.96
2016-11-26T06:01:08.493Z,17.95
2016-11-26T06:01:40.824Z,17.96
2016-11-26T06:02:13.121Z,17.92
2016-11-26T06:02:45.427Z,17.94
2016-11-26T06:03:17.771Z,17.95
2016-11-26T06:03:50.100Z,17.94
2016-11-26T06:04:22.411Z,17.95
2016-11-26T06:04:54.728Z,17.96
2016-11-26T06:05:27.043Z,17.96
2016-11-26T06:05:59.376Z,17.98
2016-11-26T06:06:31.695Z,17.96
2016-11-26T06:07:04.011Z,17.96
2016-11-26T06:07:36.328Z,17.95
2016-11-26T06:08:08.677Z,17.94
2016-11-26T06:08:40.981Z,17.96
2016-11-26T06:09:13.333Z,17.92
2016-11-26T06:09:45.645Z,17.94
2016-11-26T06:10:17.955Z,17.95
2016-11-26T06:10:50.254Z,17.95
2016-11-26T06:11:22.553Z,17.96
2016-11-26T06:11:54.875Z,17.99
2016-11-26T06:12:27.193Z,17.96
2016-11-26T06:12:59.514Z,17.9
2016-11-26T06:13:31.834Z,17.94
2016-11-26T06:14:04.140Z,17.92
2016-11-26T06:14:36.443Z,17.94
2016-11-26T06:15:08.748Z,17.96
2016-11-26T06:15:41.065Z,17.92
2016-11-26T06:16:13.381Z,17.98
2016-11-26T06:16:45.701Z,17.95
2016-11-26T06:17:18.028Z,17.9
2016-11-26T06:17:50.332Z,17.96
2016-11-26T06:18:22.662Z,17.95
2016-11-26T06:18:54.975Z,17.96
2016-11-26T06:19:27.325Z,17.94
2016-11-26T06:19:59.688Z,17.9
2016-11-26T06:20:32.018Z,17.94
2016-11-26T06:21:04.312Z,17.98
2016-11-26T06:21:36.631Z,17.92
2016-11-26T06:22:08.961Z,17.95
2016-11-26T06:22:41.283Z,17.98
2016-11-26T06:23:13.605Z,17.92
2016-11-26T06:23:45.926Z,17.94
2016-11-26T06:24:18.239Z,17.96
2016-11-26T06:24:50.547Z,17.92
2016-11-26T06:25:22.875Z,17.95
2016-11-26T06:25:55.194Z,17.95
2016-11-26T06:26:27.487Z,17.9
2016-11-26T06:26:59.895Z,17.94
2016-11-26T06:27:32.198Z,17.95
2016-11-26T06:28:04.519Z,17.95
2016-11-26T06:28:36.833Z,17.96
2016-11-26T06:29:09.144Z,17.83
2016-11-26T06:29:41.446Z,17.92
2016-11-26T06:30:13.779Z,17.98
2016-11-26T06:30:46.103Z,17.92
2016-11-26T06:31:18.414Z,17.9
2016-11-26T06:31:50.719Z,17.86
2016-11-26T06:32:23.053Z,17.9
2016-11-26T06:32:55.405Z,17.94
2016-11-26T06:33:27.722Z,18.01
2016-11-26T06:34:00.034Z,17.96
2016-11-26T06:34:32.358Z,17.94
2016-11-26T06:35:04.665Z,17.95
2016-11-26T06:35:36.997Z,17.95
2016-11-26T06:36:09.316Z,17.96
2016-11-26T06:36:41.640Z,17.95
2016-11-26T06:37:13.957Z,17.99
2016-11-26T06:37:46.255Z,17.95
2016-11-26T06:38:18.598Z,17.98
2016-11-26T06:38:50.902Z,17.99
2016-11-26T06:39:23.229Z,17.98
2016-11-26T06:39:55.554Z,17.95
2016-11-26T06:40:27.880Z,18.01
2016-11-26T06:41:00.181Z,17.88
2016-11-26T06:41:32.514Z,17.95
2016-11-26T06:42:04.811Z,17.95
2016-11-26T06:42:37.143Z,17.95
2016-11-26T06:43:09.460Z,17.95
2016-11-26T06:43:41.785Z,17.96
2016-11-26T06:44:14.105Z,17.99
2016-11-26T06:44:46.413Z,17.92
2016-11-26T06:45:18.753Z,17.98
2016-11-26T06:45:51.072Z,17.9
2016-11-26T06:46:23.396Z,17.96
2016-11-26T06:46:55.725Z,17.99
2016-11-26T06:47:28.044Z,17.9
2016-11-26T06:48:00.362Z,17.98
2016-11-26T06:48:32.684Z,17.98
2016-11-26T06:49:05.042Z,17.96
2016-11-26T06:49:37.346Z,17.94
2016-11-26T06:50:09.662Z,17.95
2016-11-26T06:50:41.980Z,17.96
2016-11-26T06:51:14.309Z,17.96
2016-11-26T06:51:46.623Z,17.98
2016-11-26T06:52:18.934Z,17.95
2016-11-26T06:52:51.248Z,17.94
2016-11-26T06:53:23.571Z,17.96
2016-11-26T06:53:55.902Z,17.92
2016-11-26T06:54:28.209Z,17.98
2016-11-26T06:55:00.541Z,17.95
2016-11-26T06:55:32.859Z,17.96
2016-11-26T06:56:05.172Z,17.99
2016-11-26T06:56:37.507Z,17.99
2016-11-26T06:57:09.821Z,17.87
2016-11-26T06:57:42.144Z,17.88